createdAt,value
2022-09-26T00:01:01.767Z,100116.86
2022-09-26T00:04:23.375Z,100114.80
2022-09-26T00:07:50.658Z,100110.59
2022-09-26T00:11:37.900Z,100110.64
2022-09-26T00:15:04.190Z,100109.16
2022-09-26T00:18:43.793Z,100102.20
2022-09-26T00:22:31.262Z,100094.11
2022-09-26T00:26:18.763Z,100095.58
2022-09-26T00:30:06.462Z,100094.85
2022-09-26T00:33:39.726Z,100091.64
2022-09-26T00:37:27.246Z,100090.19
2022-09-26T00:41:14.684Z,100090.60
2022-09-26T00:45:00.355Z,100089.53
2022-09-26T00:48:41.983Z,100079.59
2022-09-26T00:51:49.566Z,100079.70
2022-09-26T00:55:09.202Z,100078.30
2022-09-26T00:58:27.635Z,100079.68
2022-09-26T01:02:05.390Z,100078.72
2022-09-26T01:05:32.964Z,100077.15
2022-09-26T01:09:20.410Z,100076.86
2022-09-26T01:13:07.692Z,100072.05
2022-09-26T01:16:45.235Z,100071.34
2022-09-26T01:20:11.408Z,100069.81
2022-09-26T01:23:51.539Z,100064.37
2022-09-26T01:27:47.954Z,100060.11
2022-09-26T01:31:35.311Z,100053.91
2022-09-26T01:35:34.597Z,100054.23
2022-09-26T01:39:18.660Z,100048.85
2022-09-26T01:43:07.125Z,100047.99
2022-09-26T01:46:19.353Z,100046.88
2022-09-26T01:49:53.395Z,100045.62
2022-09-26T01:53:43.832Z,100043.11
2022-09-26T01:57:12.958Z,100037.39
2022-09-26T02:00:15.496Z,100033.61
2022-09-26T02:04:02.955Z,100028.02
2022-09-26T02:07:06.709Z,100021.66
2022-09-26T02:10:34.929Z,100020.39
2022-09-26T02:14:23.772Z,100015.08
2022-09-26T02:17:57.601Z,100018.52
2022-09-26T02:21:11.322Z,100034.85
2022-09-26T02:24:11.136Z,100028.27
2022-09-26T02:27:58.742Z,100024.30
2022-09-26T02:30:54.851Z,100023.11
2022-09-26T02:34:11.687Z,100017.70
2022-09-26T02:37:39.027Z,100026.27
2022-09-26T02:41:24.973Z,100020.98
2022-09-26T02:44:42.232Z,100012.29
2022-09-26T02:48:03.203Z,100006.98
2022-09-26T02:51:29.710Z,100006.23
2022-09-26T02:55:05.053Z,100001.63
2022-09-26T02:58:26.595Z,100001.98
2022-09-26T03:02:09.067Z,100002.90
2022-09-26T03:05:49.286Z,100002.70
2022-09-26T03:08:58.966Z,99997.43
2022-09-26T03:12:29.687Z,99988.59
2022-09-26T03:15:47.552Z,99987.69
2022-09-26T03:19:07.942Z,99987.58
2022-09-26T03:21:57.161Z,99988.41
2022-09-26T03:24:36.772Z,99988.80
2022-09-26T03:28:23.084Z,99983.79
2022-09-26T03:32:10.523Z,99978.18
2022-09-26T03:35:38.053Z,99973.17
2022-09-26T03:39:05.444Z,99967.81
2022-09-26T03:42:54.300Z,99962.96
2022-09-26T03:46:41.871Z,99963.17
2022-09-26T03:50:28.394Z,99957.89
2022-09-26T03:53:55.801Z,99963.63
2022-09-26T03:57:12.078Z,99970.63
2022-09-26T04:00:58.577Z,99970.48
2022-09-26T04:03:51.603Z,99970.34
2022-09-26T04:07:39.033Z,99964.42
2022-09-26T04:10:26.939Z,99958.30
2022-09-26T04:14:20.302Z,99953.91
2022-09-26T04:17:48.796Z,99948.19
2022-09-26T04:21:16.345Z,99944.85
2022-09-26T04:24:47.432Z,99950.57
2022-09-26T04:28:27.986Z,99952.10
2022-09-26T04:32:15.482Z,99958.58
2022-09-26T04:36:01.852Z,99964.35
2022-09-26T04:39:29.948Z,99967.30
2022-09-26T04:43:17.572Z,99966.30
2022-09-26T04:46:56.085Z,99965.52
2022-09-26T04:50:14.684Z,99956.67
2022-09-26T04:53:06.341Z,99955.98
2022-09-26T04:55:54.401Z,99953.40
2022-09-26T04:59:15.385Z,99946.20
2022-09-26T05:02:41.196Z,99948.77
2022-09-26T05:06:29.068Z,99943.67
2022-09-26T05:09:56.955Z,99937.23
2022-09-26T05:13:03.046Z,99938.26
2022-09-26T05:16:04.061Z,99941.18
2022-09-26T05:19:42.247Z,99939.44
2022-09-26T05:23:14.277Z,99948.52
2022-09-26T05:26:41.852Z,99953.60
2022-09-26T05:30:08.235Z,99955.52
2022-09-26T05:33:56.868Z,99948.35
2022-09-26T05:37:36.955Z,99951.82
2022-09-26T05:41:24.657Z,99954.52
2022-09-26T05:45:03.985Z,99955.44
2022-09-26T05:48:44.131Z,99960.09
2022-09-26T05:52:17.184Z,99964.10
2022-09-26T05:55:18.034Z,99967.35
2022-09-26T05:58:46.646Z,99972.79
2022-09-26T06:02:36.225Z,99972.27
2022-09-26T06:06:16.827Z,99964.86
2022-09-26T06:08:53.104Z,99956.57
2022-09-26T06:12:38.717Z,99954.84
2022-09-26T06:16:26.337Z,99956.59
2022-09-26T06:19:32.335Z,99951.01
2022-09-26T06:23:05.221Z,99952.48
2022-09-26T06:26:03.603Z,99951.60
2022-09-26T06:29:39.492Z,99956.69
2022-09-26T06:33:31.099Z,99949.89
2022-09-26T06:37:22.625Z,99950.76
2022-09-26T06:41:02.945Z,99956.40
2022-09-26T06:44:39.565Z,99965.84
2022-09-26T06:48:36.272Z,99968.11
2022-09-26T06:52:21.607Z,99957.90
2022-09-26T06:56:02.261Z,99953.46
2022-09-26T06:59:49.855Z,99951.40
2022-09-26T07:03:45.330Z,99950.55
2022-09-26T07:07:46.414Z,99947.29
2022-09-26T07:15:11.589Z,99947.31
2022-09-26T07:18:05.800Z,99945.98
2022-09-26T07:21:51.931Z,99948.69
2022-09-26T07:25:38.816Z,99953.19
2022-09-26T07:29:16.476Z,99954.40
2022-09-26T07:33:04.104Z,99950.45
2022-09-26T07:36:44.656Z,99953.18
2022-09-26T07:40:07.414Z,99944.65
2022-09-26T07:47:53.556Z,99951.70
2022-09-26T07:51:39.177Z,99953.69
2022-09-26T07:55:19.946Z,99947.39
2022-09-26T07:59:19.786Z,99945.80
2022-09-26T08:03:22.277Z,99941.80
2022-09-26T08:07:10.810Z,99945.94
2022-09-26T08:11:03.456Z,99946.28
2022-09-26T08:14:51.921Z,99948.28
2022-09-26T08:18:29.878Z,99945.75
2022-09-26T08:22:17.373Z,99954.84
2022-09-26T08:26:05.109Z,99959.07
2022-09-26T08:29:41.861Z,99957.13
2022-09-26T08:33:09.817Z,99959.09
2022-09-26T08:36:30.358Z,99963.27
2022-09-26T08:40:21.017Z,99966.77
2022-09-26T08:44:13.185Z,99962.66
2022-09-26T08:48:01.931Z,99963.20
2022-09-26T08:52:04.869Z,99965.58
2022-09-26T08:56:01.457Z,99959.85
2022-09-26T08:59:49.437Z,99954.92
2022-09-26T09:03:37.559Z,99950.36
2022-09-26T09:07:21.019Z,99950.69
2022-09-26T09:10:37.090Z,99948.30
2022-09-26T09:14:36.936Z,99949.09
2022-09-26T09:18:28.128Z,99948.66
2022-09-26T09:22:19.416Z,99945.66
2022-09-26T09:25:45.027Z,99945.78
2022-09-26T09:29:35.977Z,99945.51
2022-09-26T09:33:27.127Z,99943.90
2022-09-26T09:37:17.885Z,99943.41
2022-09-26T09:41:07.807Z,99946.84
2022-09-26T09:45:14.142Z,99944.14
2022-09-26T09:49:01.671Z,99952.00
2022-09-26T09:52:42.586Z,99956.07
2022-09-26T09:56:31.819Z,99957.40
2022-09-26T10:00:51.378Z,99957.52
2022-09-26T10:04:40.352Z,99957.66
2022-09-26T10:08:20.711Z,99957.86
2022-09-26T10:12:23.336Z,99957.10
2022-09-26T10:16:11.854Z,99954.30
2022-09-26T10:20:13.273Z,99953.30
2022-09-26T10:24:06.256Z,99948.66
2022-09-26T10:28:12.364Z,99944.44
2022-09-26T10:32:03.042Z,99943.34
2022-09-26T10:36:02.881Z,99937.89
2022-09-26T10:39:55.172Z,99935.86
2022-09-26T10:43:41.812Z,99938.77
2022-09-26T10:47:19.138Z,99940.34
2022-09-26T10:51:05.299Z,99941.80
2022-09-26T10:54:35.352Z,99938.80
2022-09-26T10:58:14.039Z,99934.71
2022-09-26T11:02:05.723Z,99931.39
2022-09-26T11:05:54.772Z,99931.92
2022-09-26T11:09:28.666Z,99930.88
2022-09-26T11:13:21.527Z,99924.90
2022-09-26T11:17:09.257Z,99924.73
2022-09-26T11:21:00.420Z,99923.34
2022-09-26T11:24:56.441Z,99923.06
2022-09-26T11:28:45.549Z,99923.45
2022-09-26T11:32:09.425Z,99925.09
2022-09-26T11:35:44.194Z,99922.53
2022-09-26T11:39:19.567Z,99920.20
2022-09-26T11:43:03.454Z,99921.11
2022-09-26T11:46:35.513Z,99926.08
2022-09-26T11:50:35.560Z,99923.93
2022-09-26T11:54:32.933Z,99926.66
2022-09-26T11:58:38.499Z,99921.98
2022-09-26T12:02:36.485Z,99916.70
2022-09-26T12:06:23.357Z,99914.69
2022-09-26T12:10:22.835Z,99905.70
2022-09-26T12:14:24.898Z,99904.55
2022-09-26T12:17:40.436Z,99899.27
2022-09-26T12:21:08.013Z,99890.31
2022-09-26T12:24:55.283Z,99894.88
2022-09-26T12:28:41.944Z,99893.44
2022-09-26T12:32:36.555Z,99896.83
2022-09-26T12:36:32.121Z,99886.10
2022-09-26T12:40:01.383Z,99891.10
2022-09-26T12:43:40.104Z,99889.20
2022-09-26T12:47:19.515Z,99889.23
2022-09-26T12:51:02.343Z,99889.36
2022-09-26T12:54:50.319Z,99883.33
2022-09-26T12:58:44.018Z,99878.34
2022-09-26T13:02:31.920Z,99860.38
2022-09-26T13:06:25.660Z,99854.24
2022-09-26T13:09:59.732Z,99855.20
2022-09-26T13:13:43.251Z,99852.16
2022-09-26T13:17:23.466Z,99850.05
2022-09-26T13:21:03.091Z,99849.70
2022-09-26T13:24:43.704Z,99846.73
2022-09-26T13:28:31.534Z,99848.40
2022-09-26T13:32:19.055Z,99842.27
2022-09-26T13:35:53.019Z,99833.55
2022-09-26T13:39:46.553Z,99831.59
2022-09-26T13:43:30.943Z,99833.33
2022-09-26T13:47:14.380Z,99826.67
2022-09-26T13:50:32.509Z,99818.42
2022-09-26T13:53:58.779Z,99820.14
2022-09-26T13:57:45.228Z,99812.35
2022-09-26T14:01:33.304Z,99806.83
2022-09-26T14:05:21.172Z,99797.02
2022-09-26T14:09:19.114Z,99798.84
2022-09-26T14:13:32.640Z,99800.42
2022-09-26T14:17:07.124Z,99798.72
2022-09-26T14:20:38.190Z,99796.86
2022-09-26T14:24:42.635Z,99800.71
2022-09-26T14:28:32.176Z,99804.63
2022-09-26T14:32:25.769Z,99804.16
2022-09-26T14:36:16.520Z,99802.00
2022-09-26T14:40:04.120Z,99798.73
2022-09-26T14:43:57.448Z,99797.80
2022-09-26T14:47:45.270Z,99799.65
2022-09-26T14:51:41.628Z,99791.73
2022-09-26T14:55:29.385Z,99785.64
2022-09-26T14:59:18.457Z,99786.20
2022-09-26T15:03:08.983Z,99781.34
2022-09-26T15:06:57.189Z,99783.10
2022-09-26T15:10:44.779Z,99779.79
2022-09-26T15:14:38.879Z,99773.75
2022-09-26T15:17:53.654Z,99774.91
2022-09-26T15:21:27.919Z,99774.41
2022-09-26T15:25:20.288Z,99775.73
2022-09-26T15:28:49.916Z,99772.19
2022-09-26T15:32:02.601Z,99775.45
2022-09-26T15:35:51.164Z,99776.12
2022-09-26T15:39:17.803Z,99774.92
2022-09-26T15:42:52.937Z,99774.99
2022-09-26T15:46:13.031Z,99773.31
2022-09-26T15:49:51.794Z,99769.25
2022-09-26T15:53:33.351Z,99762.39
2022-09-26T15:57:24.104Z,99757.66
2022-09-26T16:00:57.669Z,99754.41
2022-09-26T16:05:04.262Z,99752.77
2022-09-26T16:08:54.723Z,99753.61
2022-09-26T16:12:45.090Z,99756.88
2022-09-26T16:16:27.099Z,99755.17
2022-09-26T16:20:06.597Z,99750.25
2022-09-26T16:23:51.256Z,99746.90
2022-09-26T16:27:39.635Z,99748.14
2022-09-26T16:31:21.559Z,99743.67
2022-09-26T16:35:16.502Z,99740.16
2022-09-26T16:39:04.100Z,99740.50
2022-09-26T16:42:58.863Z,99741.88
2022-09-26T16:46:54.430Z,99741.07
2022-09-26T16:51:05.603Z,99741.20
2022-09-26T16:54:55.659Z,99735.86
2022-09-26T16:58:36.435Z,99735.50
2022-09-26T17:02:28.931Z,99740.34
2022-09-26T17:05:46.045Z,99735.58
2022-09-26T17:09:18.125Z,99732.41
2022-09-26T17:13:08.196Z,99745.89
2022-09-26T17:16:39.788Z,99744.39
2022-09-26T17:20:08.173Z,99741.85
2022-09-26T17:23:57.933Z,99743.23
2022-09-26T17:27:21.069Z,99742.22
2022-09-26T17:30:55.045Z,99741.98
2022-09-26T17:34:36.975Z,99743.10
2022-09-26T17:38:05.026Z,99743.45
2022-09-26T17:41:12.825Z,99747.14
2022-09-26T17:44:41.292Z,99748.70
2022-09-26T17:48:25.385Z,99742.91
2022-09-26T17:51:32.598Z,99744.20
2022-09-26T17:55:23.250Z,99740.32
2022-09-26T17:58:52.594Z,99740.09
2022-09-26T18:02:42.148Z,99740.85
2022-09-26T18:06:05.242Z,99742.27
2022-09-26T18:09:40.215Z,99741.54
2022-09-26T18:13:13.351Z,99740.11
2022-09-26T18:16:38.578Z,99736.86
2022-09-26T18:19:58.802Z,99729.58
2022-09-26T18:23:18.289Z,99728.11
2022-09-26T18:26:43.979Z,99730.13
2022-09-26T18:30:18.694Z,99728.40
2022-09-26T18:33:19.058Z,99724.17
2022-09-26T18:36:47.361Z,99722.52
2022-09-26T18:40:36.288Z,99717.98
2022-09-26T18:43:32.099Z,99713.39
2022-09-26T18:46:48.787Z,99713.09
2022-09-26T18:50:27.156Z,99715.13
2022-09-26T18:53:26.913Z,99722.02
2022-09-26T18:57:08.279Z,99721.33
2022-09-26T19:00:48.285Z,99720.10
2022-09-26T19:04:16.335Z,99722.88
2022-09-26T19:07:33.412Z,99721.89
2022-09-26T19:10:26.630Z,99718.84
2022-09-26T19:13:59.205Z,99721.95
2022-09-26T19:17:33.262Z,99716.20
2022-09-26T19:21:01.090Z,99714.23
2022-09-26T19:24:51.133Z,99715.05
2022-09-26T19:28:30.530Z,99713.69
2022-09-26T19:32:18.367Z,99719.02
2022-09-26T19:35:46.209Z,99712.23
2022-09-26T19:38:58.938Z,99710.23
2022-09-26T19:42:40.641Z,99707.19
2022-09-26T19:46:29.055Z,99706.57
2022-09-26T19:50:10.493Z,99703.20
2022-09-26T19:52:51.305Z,99703.12
2022-09-26T19:56:12.665Z,99708.02
2022-09-26T19:59:36.666Z,99706.63
2022-09-26T20:03:04.962Z,99701.75
2022-09-26T20:06:14.674Z,99695.80
2022-09-26T20:10:03.609Z,99685.52
2022-09-26T20:13:05.674Z,99682.30
2022-09-26T20:15:58.692Z,99681.05
2022-09-26T20:19:15.469Z,99679.19
2022-09-26T20:22:23.071Z,99676.70
2022-09-26T20:25:38.641Z,99680.25
2022-09-26T20:28:45.301Z,99678.30
2022-09-26T20:32:23.532Z,99675.58
2022-09-26T20:36:08.772Z,99672.48
2022-09-26T20:39:37.048Z,99666.05
2022-09-26T20:43:18.570Z,99665.33
2022-09-26T20:46:54.148Z,99664.66
2022-09-26T20:50:34.376Z,99661.45
2022-09-26T20:54:16.007Z,99658.95
2022-09-26T20:57:33.700Z,99659.83
2022-09-26T21:01:21.975Z,99659.10
2022-09-26T21:05:00.337Z,99658.21
2022-09-26T21:08:36.284Z,99654.65
2022-09-26T21:11:47.865Z,99654.95
2022-09-26T21:15:28.729Z,99651.71
2022-09-26T21:19:16.716Z,99643.87
2022-09-26T21:22:16.260Z,99647.38
2022-09-26T21:25:38.232Z,99645.72
2022-09-26T21:29:25.931Z,99647.20
2022-09-26T21:33:13.452Z,99646.83
2022-09-26T21:36:13.811Z,99645.98
2022-09-26T21:39:45.340Z,99644.59
2022-09-26T21:43:26.627Z,99639.42
2022-09-26T21:47:14.298Z,99630.13
2022-09-26T21:50:43.335Z,99626.61
2022-09-26T21:54:10.881Z,99620.40
2022-09-26T21:57:58.750Z,99616.14
2022-09-26T22:01:37.614Z,99614.96
2022-09-26T22:05:25.178Z,99608.89
2022-09-26T22:08:01.820Z,99601.58
2022-09-26T22:11:49.541Z,99599.35
2022-09-26T22:15:27.524Z,99589.35
2022-09-26T22:19:08.917Z,99582.41
2022-09-26T22:22:08.477Z,99583.14
2022-09-26T22:25:26.637Z,99577.02
2022-09-26T22:28:52.549Z,99570.52
2022-09-26T22:32:00.835Z,99569.20
2022-09-26T22:35:31.981Z,99564.61
2022-09-26T22:38:46.164Z,99560.76
2022-09-26T22:42:23.668Z,99550.23
2022-09-26T22:46:03.945Z,99541.67
2022-09-26T22:49:11.056Z,99535.52
2022-09-26T22:52:58.312Z,99534.26
2022-09-26T22:56:26.396Z,99534.08
2022-09-26T23:00:05.151Z,99534.59
2022-09-26T23:03:35.241Z,99527.23
2022-09-26T23:07:02.713Z,99526.11
2022-09-26T23:10:40.215Z,99518.06
2022-09-26T23:14:21.230Z,99518.48
2022-09-26T23:17:01.204Z,99509.20
2022-09-26T23:19:40.728Z,99504.14
2022-09-26T23:22:39.256Z,99499.28
2022-09-26T23:26:18.814Z,99494.44
2022-09-26T23:29:58.763Z,99495.54
2022-09-26T23:33:01.061Z,99495.34
2022-09-26T23:36:32.205Z,99495.14
2022-09-26T23:39:19.154Z,99492.88
2022-09-26T23:42:46.937Z,99494.66
2022-09-26T23:45:55.721Z,99490.65
2022-09-26T23:49:21.146Z,99485.22
2022-09-26T23:52:21.749Z,99485.38
2022-09-26T23:55:59.208Z,99481.33
2022-09-26T23:59:46.669Z,99477.04
